sensor_id;sensor_type;location;lat;lon;timestamp;temperature;humidity
10129;DHT22;5104;50.720;7.044;2023-01-15T00:01:42;7.60;99.90
10129;DHT22;5104;50.720;7.044;2023-01-15T00:04:11;7.60;99.90
10129;DHT22;5104;50.720;7.044;2023-01-15T00:06:40;7.60;99.90
10129;DHT22;5104;50.720;7.044;2023-01-15T00:09:12;7.60;99.90
10129;DHT22;5104;50.720;7.044;2023-01-15T00:11:39;7.50;99.90
10129;DHT22;5104;50.720;7.044;2023-01-15T00:14:06;7.50;99.90
10129;DHT22;5104;50.720;7.044;2023-01-15T00:16:34;7.50;99.90
10129;DHT22;5104;50.720;7.044;2023-01-15T00:19:02;7.50;99.90
10129;DHT22;5104;50.720;7.044;2023-01-15T00:21:32;7.50;99.90
10129;DHT22;5104;50.720;7.044;2023-01-15T00:23:59;7.40;99.90
10129;DHT22;5104;50.720;7.044;2023-01-15T00:26:43;7.40;99.90
10129;DHT22;5104;50.720;7.044;2023-01-15T00:29:28;7.30;99.90
10129;DHT22;5104;50.720;7.044;2023-01-15T00:32:01;7.30;99.90
10129;DHT22;5104;50.720;7.044;2023-01-15T00:34:28;7.20;99.90
10129;DHT22;5104;50.720;7.044;2023-01-15T00:36:56;7.20;99.90
10129;DHT22;5104;50.720;7.044;2023-01-15T00:39:23;7.10;99.90
10129;DHT22;5104;50.720;7.044;2023-01-15T00:41:50;7.00;99.90
10129;DHT22;5104;50.720;7.044;2023-01-15T00:44:17;7.00;99.90
10129;DHT22;5104;50.720;7.044;2023-01-15T00:46:44;7.00;99.90
10129;DHT22;5104;50.720;7.044;2023-01-15T00:49:13;7.00;99.90
10129;DHT22;5104;50.720;7.044;2023-01-15T00:51:40;6.90;99.90
10129;DHT22;5104;50.720;7.044;2023-01-15T00:54:07;6.90;99.90
10129;DHT22;5104;50.720;7.044;2023-01-15T00:56:34;6.90;99.90
10129;DHT22;5104;50.720;7.044;2023-01-15T00:59:01;6.80;99.90
10129;DHT22;5104;50.720;7.044;2023-01-15T01:01:27;6.80;99.90
10129;DHT22;5104;50.720;7.044;2023-01-15T01:03:54;6.80;99.90
10129;DHT22;5104;50.720;7.044;2023-01-15T01:06:23;6.80;99.90
10129;DHT22;5104;50.720;7.044;2023-01-15T01:08:49;6.80;99.90
10129;DHT22;5104;50.720;7.044;2023-01-15T01:11:18;6.80;99.90
10129;DHT22;5104;50.720;7.044;2023-01-15T01:13:46;6.70;99.90
10129;DHT22;5104;50.720;7.044;2023-01-15T01:16:32;6.70;99.90
10129;DHT22;5104;50.720;7.044;2023-01-15T01:19:03;6.70;99.90
10129;DHT22;5104;50.720;7.044;2023-01-15T01:21:32;6.60;99.90
10129;DHT22;5104;50.720;7.044;2023-01-15T01:23:59;6.60;99.90
10129;DHT22;5104;50.720;7.044;2023-01-15T01:26:26;6.50;99.90
10129;DHT22;5104;50.720;7.044;2023-01-15T01:28:54;6.60;99.90
10129;DHT22;5104;50.720;7.044;2023-01-15T01:31:21;6.50;99.90
10129;DHT22;5104;50.720;7.044;2023-01-15T01:33:48;6.60;99.90
10129;DHT22;5104;50.720;7.044;2023-01-15T01:36:16;6.60;99.90
10129;DHT22;5104;50.720;7.044;2023-01-15T01:38:46;6.60;99.90
10129;DHT22;5104;50.720;7.044;2023-01-15T01:41:14;6.60;99.90
10129;DHT22;5104;50.720;7.044;2023-01-15T01:43:54;6.60;99.90
10129;DHT22;5104;50.720;7.044;2023-01-15T01:46:21;6.60;99.90
10129;DHT22;5104;50.720;7.044;2023-01-15T01:48:51;6.60;99.90
10129;DHT22;5104;50.720;7.044;2023-01-15T01:51:21;6.60;99.90
10129;DHT22;5104;50.720;7.044;2023-01-15T01:53:51;6.60;99.90
10129;DHT22;5104;50.720;7.044;2023-01-15T01:56:19;6.60;99.90
10129;DHT22;5104;50.720;7.044;2023-01-15T01:58:49;6.60;99.90
10129;DHT22;5104;50.720;7.044;2023-01-15T02:01:18;6.60;99.90
10129;DHT22;5104;50.720;7.044;2023-01-15T02:03:46;6.60;99.90
10129;DHT22;5104;50.720;7.044;2023-01-15T02:06:14;6.50;99.90
10129;DHT22;5104;50.720;7.044;2023-01-15T02:08:41;6.60;99.90
10129;DHT22;5104;50.720;7.044;2023-01-15T02:11:15;6.50;99.90
10129;DHT22;5104;50.720;7.044;2023-01-15T02:13:46;6.60;99.90
10129;DHT22;5104;50.720;7.044;2023-01-15T02:16:21;6.60;99.90
10129;DHT22;5104;50.720;7.044;2023-01-15T02:18:54;6.50;99.90
10129;DHT22;5104;50.720;7.044;2023-01-15T02:21:34;6.60;99.90
10129;DHT22;5104;50.720;7.044;2023-01-15T02:24:08;6.50;99.90
10129;DHT22;5104;50.720;7.044;2023-01-15T02:26:58;6.60;99.90
10129;DHT22;5104;50.720;7.044;2023-01-15T02:29:29;6.50;99.90
10129;DHT22;5104;50.720;7.044;2023-01-15T02:32:00;6.50;99.90
10129;DHT22;5104;50.720;7.044;2023-01-15T02:34:31;6.50;99.90
10129;DHT22;5104;50.720;7.044;2023-01-15T02:37:02;6.50;99.90
10129;DHT22;5104;50.720;7.044;2023-01-15T02:39:32;6.40;99.90
10129;DHT22;5104;50.720;7.044;2023-01-15T02:42:03;6.40;99.90
10129;DHT22;5104;50.720;7.044;2023-01-15T02:44:34;6.40;99.90
10129;DHT22;5104;50.720;7.044;2023-01-15T02:47:03;6.40;99.90
10129;DHT22;5104;50.720;7.044;2023-01-15T02:49:30;6.40;99.90
10129;DHT22;5104;50.720;7.044;2023-01-15T02:52:01;6.40;99.90
10129;DHT22;5104;50.720;7.044;2023-01-15T02:54:33;6.40;99.90
10129;DHT22;5104;50.720;7.044;2023-01-15T02:57:04;6.40;99.90
10129;DHT22;5104;50.720;7.044;2023-01-15T02:59:35;6.40;99.90
10129;DHT22;5104;50.720;7.044;2023-01-15T03:02:05;6.50;99.90
10129;DHT22;5104;50.720;7.044;2023-01-15T03:04:39;6.40;99.90
10129;DHT22;5104;50.720;7.044;2023-01-15T03:07:11;6.40;99.90
10129;DHT22;5104;50.720;7.044;2023-01-15T03:09:40;6.50;99.90
10129;DHT22;5104;50.720;7.044;2023-01-15T03:12:13;6.50;99.90
10129;DHT22;5104;50.720;7.044;2023-01-15T03:14:47;6.50;99.90
10129;DHT22;5104;50.720;7.044;2023-01-15T03:17:18;6.50;99.90
10129;DHT22;5104;50.720;7.044;2023-01-15T03:19:47;6.50;99.90
10129;DHT22;5104;50.720;7.044;2023-01-15T03:22:19;6.60;99.90
10129;DHT22;5104;50.720;7.044;2023-01-15T03:24:50;6.60;99.90
10129;DHT22;5104;50.720;7.044;2023-01-15T03:27:20;6.60;99.90
10129;DHT22;5104;50.720;7.044;2023-01-15T03:29:49;6.60;99.90
10129;DHT22;5104;50.720;7.044;2023-01-15T03:32:18;6.60;53.30
10129;DHT22;5104;50.720;7.044;2023-01-15T03:34:47;6.60;62.90
10129;DHT22;5104;50.720;7.044;2023-01-15T03:37:15;6.60;59.30
10129;DHT22;5104;50.720;7.044;2023-01-15T03:39:42;6.60;55.60
10129;DHT22;5104;50.720;7.044;2023-01-15T03:42:17;6.70;24.00
10129;DHT22;5104;50.720;7.044;2023-01-15T03:44:53;6.60;44.00
10129;DHT22;5104;50.720;7.044;2023-01-15T03:47:32;6.70;20.10
10129;DHT22;5104;50.720;7.044;2023-01-15T03:50:15;6.70;34.80
10129;DHT22;5104;50.720;7.044;2023-01-15T03:52:47;6.70;4.00
10129;DHT22;5104;50.720;7.044;2023-01-15T03:55:18;6.70;1.00
10129;DHT22;5104;50.720;7.044;2023-01-15T03:57:49;6.70;11.30
10129;DHT22;5104;50.720;7.044;2023-01-15T04:00:22;6.70;21.70
10129;DHT22;5104;50.720;7.044;2023-01-15T04:02:50;6.70;21.00
10129;DHT22;5104;50.720;7.044;2023-01-15T04:05:18;6.70;25.40
10129;DHT22;5104;50.720;7.044;2023-01-15T04:07:46;6.70;40.20
10129;DHT22;5104;50.720;7.044;2023-01-15T04:10:13;6.70;29.00
10129;DHT22;5104;50.720;7.044;2023-01-15T04:12:40;6.70;34.70
10129;DHT22;5104;50.720;7.044;2023-01-15T04:15:09;6.60;30.20
10129;DHT22;5104;50.720;7.044;2023-01-15T04:17:37;6.60;48.10
10129;DHT22;5104;50.720;7.044;2023-01-15T04:20:05;6.60;24.20
10129;DHT22;5104;50.720;7.044;2023-01-15T04:22:32;6.50;29.70
10129;DHT22;5104;50.720;7.044;2023-01-15T04:25:00;6.50;77.40
10129;DHT22;5104;50.720;7.044;2023-01-15T04:27:27;6.50;66.70
10129;DHT22;5104;50.720;7.044;2023-01-15T04:29:54;6.50;40.00
10129;DHT22;5104;50.720;7.044;2023-01-15T04:32:21;6.50;67.70
10129;DHT22;5104;50.720;7.044;2023-01-15T04:34:49;6.40;59.80
10129;DHT22;5104;50.720;7.044;2023-01-15T04:37:16;6.50;60.60
10129;DHT22;5104;50.720;7.044;2023-01-15T04:39:43;6.50;54.10
10129;DHT22;5104;50.720;7.044;2023-01-15T04:42:11;6.50;16.00
10129;DHT22;5104;50.720;7.044;2023-01-15T04:44:56;6.50;10.30
10129;DHT22;5104;50.720;7.044;2023-01-15T04:47:22;6.50;1.00
10129;DHT22;5104;50.720;7.044;2023-01-15T04:49:51;6.50;1.00
10129;DHT22;5104;50.720;7.044;2023-01-15T04:52:17;6.60;1.00
10129;DHT22;5104;50.720;7.044;2023-01-15T04:54:44;6.60;1.00
10129;DHT22;5104;50.720;7.044;2023-01-15T04:57:11;6.60;1.00
10129;DHT22;5104;50.720;7.044;2023-01-15T04:59:38;6.60;1.00
10129;DHT22;5104;50.720;7.044;2023-01-15T05:02:05;6.70;1.00
10129;DHT22;5104;50.720;7.044;2023-01-15T05:04:33;6.70;1.00
10129;DHT22;5104;50.720;7.044;2023-01-15T05:07:02;6.70;1.00
10129;DHT22;5104;50.720;7.044;2023-01-15T05:09:30;6.70;1.00
10129;DHT22;5104;50.720;7.044;2023-01-15T05:11:56;6.70;1.00
10129;DHT22;5104;50.720;7.044;2023-01-15T05:14:23;6.70;1.00
10129;DHT22;5104;50.720;7.044;2023-01-15T05:16:50;6.80;1.00
10129;DHT22;5104;50.720;7.044;2023-01-15T05:19:17;6.70;1.00
10129;DHT22;5104;50.720;7.044;2023-01-15T05:21:44;6.70;1.00
10129;DHT22;5104;50.720;7.044;2023-01-15T05:24:14;6.70;1.00
10129;DHT22;5104;50.720;7.044;2023-01-15T05:26:42;6.70;1.00
10129;DHT22;5104;50.720;7.044;2023-01-15T05:29:12;6.70;1.00
10129;DHT22;5104;50.720;7.044;2023-01-15T05:31:39;6.70;1.00
10129;DHT22;5104;50.720;7.044;2023-01-15T05:34:09;6.70;1.00
10129;DHT22;5104;50.720;7.044;2023-01-15T05:36:36;6.60;1.00
10129;DHT22;5104;50.720;7.044;2023-01-15T05:39:03;6.60;1.00
10129;DHT22;5104;50.720;7.044;2023-01-15T05:41:31;6.60;1.00
10129;DHT22;5104;50.720;7.044;2023-01-15T05:44:19;6.60;1.00
10129;DHT22;5104;50.720;7.044;2023-01-15T05:46:47;6.60;1.00
10129;DHT22;5104;50.720;7.044;2023-01-15T05:49:15;6.60;1.00
10129;DHT22;5104;50.720;7.044;2023-01-15T05:51:43;6.50;1.00
10129;DHT22;5104;50.720;7.044;2023-01-15T05:54:14;6.50;1.00
10129;DHT22;5104;50.720;7.044;2023-01-15T05:56:42;6.50;1.00
10129;DHT22;5104;50.720;7.044;2023-01-15T05:59:12;6.50;1.00
10129;DHT22;5104;50.720;7.044;2023-01-15T06:01:39;6.50;1.00
10129;DHT22;5104;50.720;7.044;2023-01-15T06:04:06;6.40;1.00
10129;DHT22;5104;50.720;7.044;2023-01-15T06:06:34;6.40;1.00
10129;DHT22;5104;50.720;7.044;2023-01-15T06:09:02;6.30;1.00
10129;DHT22;5104;50.720;7.044;2023-01-15T06:11:29;6.40;1.00
10129;DHT22;5104;50.720;7.044;2023-01-15T06:13:57;6.30;1.00
10129;DHT22;5104;50.720;7.044;2023-01-15T06:16:24;6.30;1.00
10129;DHT22;5104;50.720;7.044;2023-01-15T06:18:51;6.30;1.00
10129;DHT22;5104;50.720;7.044;2023-01-15T06:21:18;6.30;1.00
10129;DHT22;5104;50.720;7.044;2023-01-15T06:23:45;6.30;1.00
10129;DHT22;5104;50.720;7.044;2023-01-15T06:26:14;6.30;1.00
10129;DHT22;5104;50.720;7.044;2023-01-15T06:28:41;6.20;1.00
10129;DHT22;5104;50.720;7.044;2023-01-15T06:31:12;6.20;86.40
10129;DHT22;5104;50.720;7.044;2023-01-15T06:33:39;6.00;87.00
10129;DHT22;5104;50.720;7.044;2023-01-15T06:36:07;5.90;99.90
10129;DHT22;5104;50.720;7.044;2023-01-15T06:38:35;5.80;99.90
10129;DHT22;5104;50.720;7.044;2023-01-15T06:41:04;5.70;99.90
10129;DHT22;5104;50.720;7.044;2023-01-15T06:43:52;5.60;99.90
10129;DHT22;5104;50.720;7.044;2023-01-15T06:46:43;5.50;99.90
10129;DHT22;5104;50.720;7.044;2023-01-15T06:49:28;5.50;99.90
10129;DHT22;5104;50.720;7.044;2023-01-15T06:51:55;5.50;99.90
10129;DHT22;5104;50.720;7.044;2023-01-15T06:54:22;5.50;99.90
10129;DHT22;5104;50.720;7.044;2023-01-15T06:56:49;5.50;99.90
10129;DHT22;5104;50.720;7.044;2023-01-15T06:59:16;5.50;99.90
10129;DHT22;5104;50.720;7.044;2023-01-15T07:01:44;5.40;99.90
10129;DHT22;5104;50.720;7.044;2023-01-15T07:04:11;5.40;99.90
10129;DHT22;5104;50.720;7.044;2023-01-15T07:06:38;5.40;99.90
10129;DHT22;5104;50.720;7.044;2023-01-15T07:09:05;5.50;99.90
10129;DHT22;5104;50.720;7.044;2023-01-15T07:11:32;5.50;99.90
10129;DHT22;5104;50.720;7.044;2023-01-15T07:13:59;5.50;99.90
10129;DHT22;5104;50.720;7.044;2023-01-15T07:16:31;5.60;72.80
10129;DHT22;5104;50.720;7.044;2023-01-15T07:18:59;5.70;31.90
10129;DHT22;5104;50.720;7.044;2023-01-15T07:21:27;5.70;1.00
10129;DHT22;5104;50.720;7.044;2023-01-15T07:23:54;5.80;1.00
10129;DHT22;5104;50.720;7.044;2023-01-15T07:26:23;5.80;1.00
10129;DHT22;5104;50.720;7.044;2023-01-15T07:28:50;5.80;1.00
10129;DHT22;5104;50.720;7.044;2023-01-15T07:31:17;5.90;1.00
10129;DHT22;5104;50.720;7.044;2023-01-15T07:33:44;5.90;1.00
10129;DHT22;5104;50.720;7.044;2023-01-15T07:36:12;5.90;1.00
10129;DHT22;5104;50.720;7.044;2023-01-15T07:38:39;6.00;1.00
10129;DHT22;5104;50.720;7.044;2023-01-15T07:41:06;6.00;1.00
10129;DHT22;5104;50.720;7.044;2023-01-15T07:43:50;6.00;1.00
10129;DHT22;5104;50.720;7.044;2023-01-15T07:46:34;5.90;1.00
10129;DHT22;5104;50.720;7.044;2023-01-15T07:49:18;5.90;1.00
10129;DHT22;5104;50.720;7.044;2023-01-15T07:52:04;5.90;1.00
10129;DHT22;5104;50.720;7.044;2023-01-15T07:54:31;5.90;1.00
10129;DHT22;5104;50.720;7.044;2023-01-15T07:56:57;5.90;99.90
10129;DHT22;5104;50.720;7.044;2023-01-15T07:59:24;5.90;99.90
10129;DHT22;5104;50.720;7.044;2023-01-15T08:01:51;5.90;55.30
10129;DHT22;5104;50.720;7.044;2023-01-15T08:04:18;5.90;1.00
10129;DHT22;5104;50.720;7.044;2023-01-15T08:06:45;5.90;1.00
10129;DHT22;5104;50.720;7.044;2023-01-15T08:09:13;5.90;99.90
10129;DHT22;5104;50.720;7.044;2023-01-15T08:11:40;5.90;99.90
10129;DHT22;5104;50.720;7.044;2023-01-15T08:14:24;5.90;1.00
10129;DHT22;5104;50.720;7.044;2023-01-15T08:17:09;6.00;87.40
10129;DHT22;5104;50.720;7.044;2023-01-15T08:19:35;6.10;1.00
10129;DHT22;5104;50.720;7.044;2023-01-15T08:22:02;6.10;99.90
10129;DHT22;5104;50.720;7.044;2023-01-15T08:24:30;6.20;1.00
10129;DHT22;5104;50.720;7.044;2023-01-15T08:26:57;6.20;1.00
10129;DHT22;5104;50.720;7.044;2023-01-15T08:29:24;6.30;1.00
10129;DHT22;5104;50.720;7.044;2023-01-15T08:31:51;6.40;1.00
10129;DHT22;5104;50.720;7.044;2023-01-15T08:34:18;6.40;1.00
10129;DHT22;5104;50.720;7.044;2023-01-15T08:36:45;6.50;99.90
10129;DHT22;5104;50.720;7.044;2023-01-15T08:39:14;6.50;58.30
10129;DHT22;5104;50.720;7.044;2023-01-15T08:41:42;6.60;99.90
10129;DHT22;5104;50.720;7.044;2023-01-15T08:44:09;6.60;99.90
10129;DHT22;5104;50.720;7.044;2023-01-15T08:46:37;6.60;1.00
10129;DHT22;5104;50.720;7.044;2023-01-15T08:49:04;6.60;99.90
10129;DHT22;5104;50.720;7.044;2023-01-15T08:51:31;6.60;1.00
10129;DHT22;5104;50.720;7.044;2023-01-15T08:53:58;6.60;1.00
10129;DHT22;5104;50.720;7.044;2023-01-15T08:56:25;6.60;92.90
10129;DHT22;5104;50.720;7.044;2023-01-15T08:58:53;6.70;1.00
10129;DHT22;5104;50.720;7.044;2023-01-15T09:01:20;6.70;99.90
10129;DHT22;5104;50.720;7.044;2023-01-15T09:03:47;6.70;11.50
10129;DHT22;5104;50.720;7.044;2023-01-15T09:06:14;6.70;8.20
10129;DHT22;5104;50.720;7.044;2023-01-15T09:08:41;6.70;99.90
10129;DHT22;5104;50.720;7.044;2023-01-15T09:11:08;6.60;1.00
10129;DHT22;5104;50.720;7.044;2023-01-15T09:13:37;6.70;1.00
10129;DHT22;5104;50.720;7.044;2023-01-15T09:16:06;6.70;1.00
10129;DHT22;5104;50.720;7.044;2023-01-15T09:18:35;6.70;99.90
10129;DHT22;5104;50.720;7.044;2023-01-15T09:21:04;6.70;99.90
10129;DHT22;5104;50.720;7.044;2023-01-15T09:23:31;6.70;99.90
10129;DHT22;5104;50.720;7.044;2023-01-15T09:25:59;6.80;1.00
10129;DHT22;5104;50.720;7.044;2023-01-15T09:28:27;6.80;99.90
10129;DHT22;5104;50.720;7.044;2023-01-15T09:30:54;6.90;99.90
10129;DHT22;5104;50.720;7.044;2023-01-15T09:33:23;6.90;1.00
10129;DHT22;5104;50.720;7.044;2023-01-15T09:35:50;6.90;99.90
10129;DHT22;5104;50.720;7.044;2023-01-15T09:38:19;6.90;99.90
10129;DHT22;5104;50.720;7.044;2023-01-15T09:40:49;6.90;99.90
10129;DHT22;5104;50.720;7.044;2023-01-15T09:43:36;6.80;1.00
10129;DHT22;5104;50.720;7.044;2023-01-15T09:46:13;6.70;1.00
10129;DHT22;5104;50.720;7.044;2023-01-15T09:48:52;6.60;1.00
10129;DHT22;5104;50.720;7.044;2023-01-15T09:51:30;6.60;1.00
10129;DHT22;5104;50.720;7.044;2023-01-15T09:54:13;6.50;99.90
10129;DHT22;5104;50.720;7.044;2023-01-15T09:56:43;6.50;1.00
10129;DHT22;5104;50.720;7.044;2023-01-15T09:59:18;6.60;99.90
10129;DHT22;5104;50.720;7.044;2023-01-15T10:01:47;6.80;1.00
10129;DHT22;5104;50.720;7.044;2023-01-15T10:04:27;7.00;1.00
10129;DHT22;5104;50.720;7.044;2023-01-15T10:07:04;7.10;27.20
10129;DHT22;5104;50.720;7.044;2023-01-15T10:09:38;7.00;1.00
10129;DHT22;5104;50.720;7.044;2023-01-15T10:12:14;7.00;99.90
10129;DHT22;5104;50.720;7.044;2023-01-15T10:15:04;6.90;95.90
10129;DHT22;5104;50.720;7.044;2023-01-15T10:17:38;6.80;1.00
10129;DHT22;5104;50.720;7.044;2023-01-15T10:20:13;6.70;99.90
10129;DHT22;5104;50.720;7.044;2023-01-15T10:22:57;6.70;1.00
10129;DHT22;5104;50.720;7.044;2023-01-15T10:25:41;6.60;99.90
10129;DHT22;5104;50.720;7.044;2023-01-15T10:28:17;6.60;1.00
10129;DHT22;5104;50.720;7.044;2023-01-15T10:30:47;6.60;99.90
10129;DHT22;5104;50.720;7.044;2023-01-15T10:33:34;6.70;99.90
10129;DHT22;5104;50.720;7.044;2023-01-15T10:36:11;6.70;1.00
10129;DHT22;5104;50.720;7.044;2023-01-15T10:38:48;6.90;61.60
10129;DHT22;5104;50.720;7.044;2023-01-15T10:41:30;7.00;99.90
10129;DHT22;5104;50.720;7.044;2023-01-15T10:44:07;7.10;1.00
10129;DHT22;5104;50.720;7.044;2023-01-15T10:46:38;7.20;1.00
10129;DHT22;5104;50.720;7.044;2023-01-15T10:49:12;7.30;99.90
10129;DHT22;5104;50.720;7.044;2023-01-15T10:51:44;7.30;1.00
10129;DHT22;5104;50.720;7.044;2023-01-15T10:54:19;7.40;1.00
10129;DHT22;5104;50.720;7.044;2023-01-15T10:56:52;7.40;1.00
10129;DHT22;5104;50.720;7.044;2023-01-15T10:59:32;7.40;1.00
10129;DHT22;5104;50.720;7.044;2023-01-15T11:02:01;7.40;1.00
10129;DHT22;5104;50.720;7.044;2023-01-15T11:04:31;7.50;1.00
10129;DHT22;5104;50.720;7.044;2023-01-15T11:06:59;7.60;1.00
10129;DHT22;5104;50.720;7.044;2023-01-15T11:09:27;7.70;1.00
10129;DHT22;5104;50.720;7.044;2023-01-15T11:12:07;7.80;1.00
10129;DHT22;5104;50.720;7.044;2023-01-15T11:14:55;7.80;1.00
10129;DHT22;5104;50.720;7.044;2023-01-15T11:17:43;7.80;99.90
10129;DHT22;5104;50.720;7.044;2023-01-15T11:20:30;8.00;99.90
10129;DHT22;5104;50.720;7.044;2023-01-15T11:23:07;8.00;1.00
10129;DHT22;5104;50.720;7.044;2023-01-15T11:25:35;8.00;1.00
10129;DHT22;5104;50.720;7.044;2023-01-15T11:28:05;8.00;1.00
10129;DHT22;5104;50.720;7.044;2023-01-15T11:30:36;8.00;1.00
10129;DHT22;5104;50.720;7.044;2023-01-15T11:33:04;8.00;1.00
10129;DHT22;5104;50.720;7.044;2023-01-15T11:35:32;7.90;99.90
10129;DHT22;5104;50.720;7.044;2023-01-15T11:38:06;8.00;1.00
10129;DHT22;5104;50.720;7.044;2023-01-15T11:40:33;8.00;1.00
10129;DHT22;5104;50.720;7.044;2023-01-15T11:43:00;8.00;1.00
10129;DHT22;5104;50.720;7.044;2023-01-15T11:45:49;8.10;1.00
10129;DHT22;5104;50.720;7.044;2023-01-15T11:48:41;8.20;1.00
10129;DHT22;5104;50.720;7.044;2023-01-15T11:51:27;8.10;1.00
10129;DHT22;5104;50.720;7.044;2023-01-15T11:53:59;8.10;1.00
10129;DHT22;5104;50.720;7.044;2023-01-15T11:56:29;8.10;1.00
10129;DHT22;5104;50.720;7.044;2023-01-15T11:59:00;8.20;1.00
10129;DHT22;5104;50.720;7.044;2023-01-15T12:01:30;8.20;1.00
10129;DHT22;5104;50.720;7.044;2023-01-15T12:03:59;8.40;1.00
10129;DHT22;5104;50.720;7.044;2023-01-15T12:06:27;8.50;1.00
10129;DHT22;5104;50.720;7.044;2023-01-15T12:09:02;8.60;1.00
10129;DHT22;5104;50.720;7.044;2023-01-15T12:11:47;8.60;1.00
10129;DHT22;5104;50.720;7.044;2023-01-15T12:14:40;8.70;1.00
10129;DHT22;5104;50.720;7.044;2023-01-15T12:17:23;8.50;1.00
10129;DHT22;5104;50.720;7.044;2023-01-15T12:20:00;8.50;1.00
10129;DHT22;5104;50.720;7.044;2023-01-15T12:22:39;8.50;1.00
10129;DHT22;5104;50.720;7.044;2023-01-15T12:25:21;8.60;1.00
10129;DHT22;5104;50.720;7.044;2023-01-15T12:28:01;8.70;1.00
10129;DHT22;5104;50.720;7.044;2023-01-15T12:30:37;8.60;1.00
10129;DHT22;5104;50.720;7.044;2023-01-15T12:33:19;8.60;1.00
10129;DHT22;5104;50.720;7.044;2023-01-15T12:35:52;8.40;1.00
10129;DHT22;5104;50.720;7.044;2023-01-15T12:38:39;8.40;1.00
10129;DHT22;5104;50.720;7.044;2023-01-15T12:41:10;8.50;1.00
10129;DHT22;5104;50.720;7.044;2023-01-15T12:43:38;8.50;1.00
10129;DHT22;5104;50.720;7.044;2023-01-15T12:46:25;8.60;1.00
10129;DHT22;5104;50.720;7.044;2023-01-15T12:49:00;8.50;1.00
10129;DHT22;5104;50.720;7.044;2023-01-15T12:51:33;8.60;1.00
10129;DHT22;5104;50.720;7.044;2023-01-15T12:54:06;8.70;1.00
10129;DHT22;5104;50.720;7.044;2023-01-15T12:56:44;8.80;1.00
10129;DHT22;5104;50.720;7.044;2023-01-15T12:59:17;8.90;1.00
10129;DHT22;5104;50.720;7.044;2023-01-15T13:01:51;8.90;1.00
10129;DHT22;5104;50.720;7.044;2023-01-15T13:04:27;8.70;1.00
10129;DHT22;5104;50.720;7.044;2023-01-15T13:07:00;8.60;1.00
10129;DHT22;5104;50.720;7.044;2023-01-15T13:09:35;8.60;1.00
10129;DHT22;5104;50.720;7.044;2023-01-15T13:12:11;8.70;1.00
10129;DHT22;5104;50.720;7.044;2023-01-15T13:14:39;8.70;1.00
10129;DHT22;5104;50.720;7.044;2023-01-15T13:17:12;8.60;1.00
10129;DHT22;5104;50.720;7.044;2023-01-15T13:19:49;8.70;1.00
10129;DHT22;5104;50.720;7.044;2023-01-15T13:22:24;8.80;1.00
10129;DHT22;5104;50.720;7.044;2023-01-15T13:27:59;8.80;1.00
10129;DHT22;5104;50.720;7.044;2023-01-15T13:30:40;8.90;1.00
10129;DHT22;5104;50.720;7.044;2023-01-15T13:33:17;8.80;1.00
10129;DHT22;5104;50.720;7.044;2023-01-15T13:35:49;8.70;1.00
10129;DHT22;5104;50.720;7.044;2023-01-15T13:38:19;8.70;1.00
10129;DHT22;5104;50.720;7.044;2023-01-15T13:40:49;8.70;1.00
10129;DHT22;5104;50.720;7.044;2023-01-15T13:43:34;8.80;1.00
10129;DHT22;5104;50.720;7.044;2023-01-15T13:46:05;8.70;1.00
10129;DHT22;5104;50.720;7.044;2023-01-15T13:48:36;8.70;1.00
10129;DHT22;5104;50.720;7.044;2023-01-15T13:51:06;8.70;1.00
10129;DHT22;5104;50.720;7.044;2023-01-15T13:53:44;8.80;1.00
10129;DHT22;5104;50.720;7.044;2023-01-15T13:56:23;8.70;1.00
10129;DHT22;5104;50.720;7.044;2023-01-15T13:58:54;8.50;1.00
10129;DHT22;5104;50.720;7.044;2023-01-15T14:01:23;8.50;1.00
10129;DHT22;5104;50.720;7.044;2023-01-15T14:04:00;8.40;1.00
10129;DHT22;5104;50.720;7.044;2023-01-15T14:06:40;8.30;1.00
10129;DHT22;5104;50.720;7.044;2023-01-15T14:09:11;8.40;1.00
10129;DHT22;5104;50.720;7.044;2023-01-15T14:11:44;8.50;1.00
10129;DHT22;5104;50.720;7.044;2023-01-15T14:17:30;8.50;1.00
10129;DHT22;5104;50.720;7.044;2023-01-15T14:20:25;8.50;1.00
10129;DHT22;5104;50.720;7.044;2023-01-15T14:23:08;8.50;1.00
10129;DHT22;5104;50.720;7.044;2023-01-15T14:25:51;8.50;1.00
10129;DHT22;5104;50.720;7.044;2023-01-15T14:28:33;8.40;1.00
10129;DHT22;5104;50.720;7.044;2023-01-15T14:34:10;8.40;1.00
10129;DHT22;5104;50.720;7.044;2023-01-15T14:36:45;8.30;1.00
10129;DHT22;5104;50.720;7.044;2023-01-15T14:39:27;8.30;1.00
10129;DHT22;5104;50.720;7.044;2023-01-15T14:41:59;8.30;1.00
10129;DHT22;5104;50.720;7.044;2023-01-15T14:44:44;8.30;1.00
10129;DHT22;5104;50.720;7.044;2023-01-15T14:47:23;8.30;1.00
10129;DHT22;5104;50.720;7.044;2023-01-15T14:50:01;8.20;1.00
10129;DHT22;5104;50.720;7.044;2023-01-15T14:52:29;8.20;1.00
10129;DHT22;5104;50.720;7.044;2023-01-15T14:54:57;8.20;1.00
10129;DHT22;5104;50.720;7.044;2023-01-15T14:57:25;8.10;1.00
10129;DHT22;5104;50.720;7.044;2023-01-15T14:59:55;8.10;1.00
10129;DHT22;5104;50.720;7.044;2023-01-15T15:02:32;8.10;1.00
10129;DHT22;5104;50.720;7.044;2023-01-15T15:05:02;8.20;1.00
10129;DHT22;5104;50.720;7.044;2023-01-15T15:07:35;8.20;1.00
10129;DHT22;5104;50.720;7.044;2023-01-15T15:10:11;8.20;1.00
10129;DHT22;5104;50.720;7.044;2023-01-15T15:12:42;8.10;1.00
10129;DHT22;5104;50.720;7.044;2023-01-15T15:15:14;8.10;1.00
10129;DHT22;5104;50.720;7.044;2023-01-15T15:17:51;8.10;1.00
10129;DHT22;5104;50.720;7.044;2023-01-15T15:20:29;8.10;1.00
10129;DHT22;5104;50.720;7.044;2023-01-15T15:23:03;8.10;1.00
10129;DHT22;5104;50.720;7.044;2023-01-15T15:25:35;8.10;1.00
10129;DHT22;5104;50.720;7.044;2023-01-15T15:28:07;8.10;1.00
10129;DHT22;5104;50.720;7.044;2023-01-15T15:30:39;8.10;1.00
10129;DHT22;5104;50.720;7.044;2023-01-15T15:33:14;8.00;1.00
10129;DHT22;5104;50.720;7.044;2023-01-15T15:35:47;8.00;1.00
10129;DHT22;5104;50.720;7.044;2023-01-15T15:38:16;8.00;1.00
10129;DHT22;5104;50.720;7.044;2023-01-15T15:40:46;8.00;1.00
10129;DHT22;5104;50.720;7.044;2023-01-15T15:43:16;8.00;1.00
10129;DHT22;5104;50.720;7.044;2023-01-15T15:46:02;8.00;1.00
10129;DHT22;5104;50.720;7.044;2023-01-15T15:48:50;7.90;1.00
10129;DHT22;5104;50.720;7.044;2023-01-15T15:51:30;7.90;1.00
10129;DHT22;5104;50.720;7.044;2023-01-15T15:54:12;7.90;1.00
10129;DHT22;5104;50.720;7.044;2023-01-15T15:56:45;7.90;1.00
10129;DHT22;5104;50.720;7.044;2023-01-15T15:59:28;7.90;99.90
10129;DHT22;5104;50.720;7.044;2023-01-15T16:01:57;7.80;8.30
10129;DHT22;5104;50.720;7.044;2023-01-15T16:04:26;7.70;1.00
10129;DHT22;5104;50.720;7.044;2023-01-15T16:06:54;7.60;1.00
10129;DHT22;5104;50.720;7.044;2023-01-15T16:09:23;7.60;1.00
10129;DHT22;5104;50.720;7.044;2023-01-15T16:11:51;7.50;1.00
10129;DHT22;5104;50.720;7.044;2023-01-15T16:14:20;7.40;1.00
10129;DHT22;5104;50.720;7.044;2023-01-15T16:16:49;7.30;99.90
10129;DHT22;5104;50.720;7.044;2023-01-15T16:19:18;7.30;23.30
10129;DHT22;5104;50.720;7.044;2023-01-15T16:21:47;7.30;99.90
10129;DHT22;5104;50.720;7.044;2023-01-15T16:24:24;7.30;99.90
10129;DHT22;5104;50.720;7.044;2023-01-15T16:27:00;7.40;99.90
10129;DHT22;5104;50.720;7.044;2023-01-15T16:29:31;7.40;1.00
10129;DHT22;5104;50.720;7.044;2023-01-15T16:31:59;7.50;1.00
10129;DHT22;5104;50.720;7.044;2023-01-15T16:34:28;7.50;1.00
10129;DHT22;5104;50.720;7.044;2023-01-15T16:36:56;7.50;1.00
10129;DHT22;5104;50.720;7.044;2023-01-15T16:39:27;7.50;99.90
10129;DHT22;5104;50.720;7.044;2023-01-15T16:41:57;7.40;97.80
10129;DHT22;5104;50.720;7.044;2023-01-15T16:44:38;7.40;99.90
10129;DHT22;5104;50.720;7.044;2023-01-15T16:47:18;7.40;99.90
10129;DHT22;5104;50.720;7.044;2023-01-15T16:49:47;7.40;99.90